Weather observations for the past three days for
William M Tuck Airport
Imperial (Metric)
Date Time (edt) Wind (mph) Vis. (mi.) Weather Sky Cond. Temperature (ºF) Relative Humidity Wind Chill (°F) Heat Index (°F) Pressure Precipitation (in)
Air Dwpt 6 hour altimeter (in) sea level (mb) 1 hr 3 hr 6 hr
Max. Min.
03 10:55 Calm 10.00 Fair CLR 90 70.2 52% 96 30.07 0.0
03 10:35 Calm 10.00 Fair CLR 87.8 69.6 55% 93 30.07 0.0
03 10:15 Calm 10.00 Fair CLR 85.6 70.5 61% 91 30.07 0.0
03 09:55 NW 3 10.00 Fair CLR 84.2 70.5 64% 89 30.07 0.0
03 09:35 Calm 10.00 Fair CLR 81.5 69.8 68% 85 30.07 0.0
03 09:15 Calm 10.00 Fair CLR 79.9 69.4 71% 83 30.07 0.0
03 08:55 Calm 10.00 Fair CLR 77.7 69.1 75% 80 30.07 0.0
03 08:35 Calm 10.00 Fair CLR 76.5 69.1 78% 78 30.08 0.0
03 08:15 Calm 10.00 Fair CLR 74.8 69.1 82% 30.08 0.0
03 07:55 Calm 10.00 Fair CLR 73 69.4 73 69.1 89% 30.08 0.0
03 07:35 Calm 10.00 Fair CLR 71.1 68.4 91% 30.07 0.0
03 07:15 Calm 10.00 Fair CLR 69.8 67.8 93% 30.07 0.0
03 06:55 Calm 7.00 Fair CLR 69.6 68 95% 30.06 0.0
03 06:35 Calm 10.00 Fair CLR 70 67.8 93% 30.05 0.0
03 06:15 Calm 10.00 Fair CLR 70.2 68.7 95% 30.05 0.0
03 05:55 Calm 7.00 Fair CLR 69.8 68 94% 30.04 0.0
03 05:15 Calm 10.00 Fair CLR 70.2 67.8 92% 30.04 0.0
03 04:55 Calm 10.00 Fair CLR 70.9 68 91% 30.04 0.0
03 04:35 Calm 10.00 Fair CLR 70.3 67.6 91% 30.04 0.0
03 04:15 Calm 10.00 Fair CLR 71.2 67.6 88% 30.04 0.0
03 03:55 Calm 10.00 Fair CLR 72.5 68.2 86% 30.04 0.0
03 03:35 N 3 10.00 Fair CLR 72.7 68.5 87% 30.04 0.0
03 03:15 Calm 10.00 Fair CLR 71.8 68.4 89% 30.03 0.0
03 02:55 Calm 10.00 Fair CLR 71.6 68.4 90% 30.03 0.0
03 02:35 Calm 10.00 Fair CLR 71.8 67.5 86% 30.03 0.0
03 02:15 Calm 10.00 Fair CLR 71.8 67.8 87% 30.04 0.0
03 01:55 Calm 10.00 Fair CLR 72.5 67.8 86 72.5 85% 30.04 0.0
03 01:35 Calm 10.00 Fair CLR 72.9 67.8 84% 30.04 0.0
03 01:15 Calm 10.00 Fair CLR 73.6 68.2 83% 30.04 0.0
03 00:55 Calm 10.00 Fair CLR 74.8 67.6 78% 30.04 0.0
03 00:35 Calm 10.00 Fair CLR 75.6 68 77% 77 30.04 0.0
03 00:15 Calm 10.00 Fair CLR 77 67.3 72% 79 30.04 0.0
02 23:55 Calm 10.00 Fair CLR 77.5 67.5 71% 79 30.04 0.0
02 23:35 Calm 10.00 Fair CLR 79.5 66.7 65% 82 30.05 0.0
02 23:15 Calm 10.00 Fair CLR 79.7 67.3 66% 82 30.04 0.0
02 22:55 E 5 10.00 Fair CLR 79.7 67.5 66% 82 30.05 0.0
02 22:35 Calm 10.00 Fair CLR 80.1 68 67% 83 30.05 0.0
02 22:15 E 5 10.00 Fair CLR 81.5 68 64% 84 30.06 0.0
02 21:55 E 5 10.00 Fair CLR 82.9 68 61% 86 30.06 0.0
02 21:35 SE 5 10.00 Fair CLR 84.2 68 58% 87 30.06 0.0
02 21:15 E 9 10.00 Fair CLR 84.4 68.2 58% 88 30.06 0.0
02 20:55 Calm 10.00 Fair CLR 82 69.8 67% 86 30.04 0.0
02 20:35 Calm 10.00 Fair CLR 82.9 70 65% 87 30.03 0.0
02 20:15 Calm 10.00 Fair CLR 84.7 70.7 63% 90 30.03 0.0
02 19:55 W 5 10.00 Partly Cloudy SCT080 SCT120 87.6 69.3 99.3 87.6 55% 92 30.02 0.0
02 19:35 Calm 10.00 Overcast BKN080 BKN090 OVC120 90 66.9 47% 93 30.03 0.0
02 19:15 Calm 10.00 Overcast BKN080 OVC090 91.6 68.7 47% 96 30.03 0.0
02 18:55 S 3 10.00 Overcast OVC090 93.2 66.7 42% 97 30.03 0.0
02 18:35 E 3 10.00 Overcast OVC090 95.2 65.5 38% 98 30.03 0.0
02 18:15 SE 3 10.00 Mostly Cloudy BKN090 BKN120 95 66 39% 98 30.03 0.0
02 17:55 S 3 10.00 Partly Cloudy SCT090 SCT120 96.8 65.3 36% 100 30.02 0.0
02 17:35 Calm 10.00 Mostly Cloudy BKN090 98.1 63.9 33% 100 30.02 0.0
02 17:15 E 5 10.00 Partly Cloudy SCT100 99 64 32% 102 30.01 0.0
02 16:55 Calm 10.00 Fair CLR 99.3 63.9 31% 102 30.02 0.0
02 16:35 Calm 10.00 Fair CLR 97.9 64.2 33% 100 30.02 0.0
02 16:15 Calm 10.00 Partly Cloudy SCT075 98.1 63.1 32% 100 30.02 0.0
02 15:55 SE 5 10.00 Partly Cloudy SCT075 97.9 64.6 34% 101 30.03 0.0
02 15:35 S 6 10.00 Fair CLR 98.2 63.9 32% 101 30.04 0.0
02 15:15 E 3 10.00 Fair CLR 98.1 63.5 32% 100 30.04 0.0
02 14:55 Calm 10.00 Fair CLR 96.4 63.3 34% 98 30.05 0.0
02 14:35 S 3 10.00 Partly Cloudy SCT070 97.2 64.4 34% 100 30.05 0.0
02 14:15 Calm 10.00 Fair CLR 96.6 64.9 35% 99 30.06 0.0
02 13:55 Calm 10.00 Partly Cloudy SCT065 96.1 65.8 96.4 72.3 37% 99 30.06 0.0
02 13:35 Calm 10.00 Partly Cloudy SCT065 95.4 65.3 37% 98 30.06 0.0
02 13:15 S 5 10.00 Fair CLR 95.5 66.2 38% 99 30.07 0.0
02 12:55 W 3 10.00 Fair CLR 95 65.8 38% 98 30.07 0.0
02 12:35 Calm 10.00 Fair CLR 95 66.7 40% 99 30.08 0.0
02 12:15 Calm 10.00 Fair CLR 93.9 66 40% 97 30.09 0.0
02 11:55 Calm 10.00 Fair CLR 92.1 67.3 44% 96 30.09 0.0
02 11:35 Calm 10.00 Fair CLR 91.6 67.6 45% 95 30.09 0.0
02 11:15 Calm 10.00 Fair CLR 90.7 66.6 45% 94 30.09 0.0
02 10:55 Calm 10.00 Fair CLR 90 68.5 49% 94 30.1 0.0
02 10:35 Calm 10.00 Fair CLR 88.7 67.5 50% 92 30.09 0.0
02 10:15 Calm 10.00 Fair CLR 88 69.3 54% 93 30.09 0.0
02 09:55 Calm 10.00 Fair CLR 85.3 70.5 61% 90 30.09 0.0
02 09:35 Calm 10.00 Fair CLR 84.6 70 62% 89 30.09 0.0
02 09:15 Calm 10.00 Fair CLR 82.4 69.6 65% 86 30.09 0.0
02 08:55 Calm 10.00 Fair CLR 78.8 70.7 76% 82 30.09 0.0
02 08:35 Calm 10.00 Fair CLR 76.1 69.8 81% 77 30.09 0.0
02 08:15 Calm 10.00 Fair CLR 73.9 70.3 89% 30.09 0.0
02 07:55 Calm 7.00 Fair CLR 71.6 69.8 72.5 68 94% 30.09 0.0
02 07:35 Calm 7.00 Fair CLR 70 68.4 95% 30.09 0.0
02 07:15 Calm 7.00 Fair CLR 68.9 67.1 94% 30.09 0.0
02 06:55 Calm 10.00 Fair CLR 69.1 67.5 95% 30.08 0.0
02 06:35 Calm 10.00 Fair CLR 69.3 68 96% 30.07 0.0
02 06:15 Calm 4.00 Fair CLR 69.1 67.6 95% 30.07 0.0
02 05:55 Calm 7.00 Fair CLR 69.1 67.6 95% 30.07 0.0
02 05:35 Calm 4.00 Fair CLR 68.4 66.9 95% 30.07 0.0
02 05:15 Calm 7.00 Fair CLR 70.5 68.9 95% 30.06 0.0
02 04:55 Calm 10.00 Fair CLR 70.2 68.7 95% 30.06 0.0
02 04:35 Calm 5.00 Fair CLR 70.3 68.9 95% 30.06 0.0
02 04:15 Calm 3.00 Fair CLR 70.7 69.1 95% 30.06 0.0
02 03:55 Calm 7.00 Fair CLR 70.9 69.3 95% 30.06 0.0
02 03:35 Calm 10.00 Fair CLR 71.6 69.4 93% 30.06 0.0
02 03:15 Calm 10.00 Fair CLR 71.1 69.3 94% 30.06 0.0
02 02:55 Calm 7.00 Fair CLR 70.5 68.2 92% 30.06 0.0
02 02:35 Calm 10.00 Fair CLR 71.8 68.5 90% 30.06 0.0
02 02:15 Calm 10.00 Fair CLR 72.1 69.6 92% 30.06 0.0
02 01:55 Calm 10.00 Fair CLR 72.3 69.8 81.7 72.3 92% 30.06 0.0
02 01:35 Calm 10.00 Fair CLR 72.5 69.8 91% 30.06 0.0
02 01:15 Calm 10.00 Fair CLR 73.2 69.8 89% 30.05 0.0
02 00:55 Calm 10.00 Fair CLR 73 69.3 88% 30.05 0.0
02 00:35 Calm 10.00 Fair CLR 72.7 69.8 91% 30.04 0.0
02 00:15 Calm 10.00 Fair CLR 73.4 70 89% 30.04 0.0
01 23:55 Calm 10.00 Fair CLR 73.9 69.8 87% 30.04 0.0
01 23:35 Calm 10.00 Fair CLR 75 69.6 83% 75 30.04 0.0
01 23:15 Calm 10.00 Fair CLR 75 69.8 84% 75 30.04 0.0
01 22:55 Calm 10.00 Fair CLR 75.4 71.8 89% 75 30.04 0.0
01 22:35 Calm 10.00 Fair CLR 75.6 71.4 87% 76 30.03 0.0
01 22:15 Calm 10.00 Fair CLR 75.7 70.2 83% 76 30.03 0.0
01 21:55 Calm 10.00 Fair CLR 77 70 79% 79 30.03 0.0
01 21:35 Calm 10.00 Fair CLR 76.8 70.7 81% 78 30.02 0.0
01 21:15 Calm 10.00 Fair CLR 78.8 72.3 81% 82 30.02 0.0
01 20:55 Calm 10.00 Fair CLR 79.9 70.5 73% 83 30.01 0.0
01 20:35 Calm 10.00 Fair CLR 81.3 69.4 67% 85 30 0.0
01 20:15 Calm 10.00 Fair CLR 80.8 72.1 75% 85 30 0.0
01 19:55 Calm 10.00 Fair CLR 82.4 72.5 97.5 82.4 72% 88 30 0.0
01 19:35 Calm 10.00 Fair CLR 86.2 70 59% 91 30 0.0
01 19:15 Calm 10.00 Fair CLR 88.5 66 47% 91 30 0.0
01 18:55 Calm 10.00 Fair CLR 92.5 66.4 42% 96 30.01 0.0
01 18:35 N 3 10.00 Fair CLR 94.3 63.9 37% 96 30.01 0.0
01 18:15 N 5 10.00 Fair CLR 95 62.1 34% 96 30.01 0.0
01 17:55 Calm 10.00 Fair CLR 96.1 61.7 32% 97 30 0.0
01 17:35 NW 5 10.00 Fair CLR 96.8 61.3 31% 98 30 0.0
01 17:15 NW 5 10.00 Fair CLR 96.6 62.1 32% 98 30 0.0
01 16:55 NW 8 10.00 Fair CLR 97 63.3 33% 99 30.01 0.0
01 16:35 N 3 10.00 Fair CLR 93.6 64.8 39% 96 30.02 0.0
01 16:15 N 5 10.00 Partly Cloudy SCT070 95.2 63.1 35% 97 30.02 0.0
01 15:55 N 5 10.00 Partly Cloudy SCT070 SCT080 97.2 63.9 33% 99 30.02 0.0
01 15:35 Calm 10.00 Partly Cloudy SCT080 94.5 63.3 36% 96 30.02 0.0
01 15:15 N 5 10.00 Partly Cloudy SCT070 96.6 64.4 35% 99 30.03 0.0
01 14:55 W 3 10.00 Mostly Cloudy BKN080 96.6 64.2 34% 99 30.04 0.0
01 14:35 Calm 10.00 Fair CLR 95.9 64.8 36% 98 30.04 0.0
01 14:15 NW 7 10.00 Fair CLR 96.1 66.2 38% 100 30.04 0.0
01 13:55 NE 6 10.00 Fair CLR 95.5 64.4 95.5 71.8 36% 98 30.05 0.0
01 13:35 NW 3 10.00 Fair CLR 94.3 64 37% 96 30.05 0.0
01 13:15 NW 5 10.00 Fair CLR 93.9 64.9 38% 96 30.06 0.0
01 12:55 NW 6 10.00 Fair CLR 92.8 64.9 40% 95 30.07 0.0
01 12:35 NW 8 10.00 Fair CLR 92.5 65.3 41% 95 30.07 0.0
01 12:15 N 7 10.00 Fair CLR 91.4 66.6 44% 94 30.08 0.0
01 11:55 W 3 10.00 Fair CLR 90.9 67.8 47% 95 30.09 0.0
01 11:35 N 5 10.00 Fair CLR 89.8 69.6 52% 95 30.09 0.0
01 11:15 NW 6 10.00 Fair CLR 88.5 68.7 52% 93 30.1 0.0
01 10:55 N 7 10.00 Fair CLR 87.6 70 56% 93 30.1 0.0
01 10:35 NW 5 10.00 Fair CLR 85.8 70.7 61% 91 30.11 0.0
01 10:15 Calm 10.00 Fair CLR 83.8 72 68% 89 30.11 0.0
01 09:55 NW 6 10.00 Fair CLR 81.7 70.9 70% 86 30.11 0.0
01 09:35 NW 3 10.00 Fair CLR 79.7 71.4 76% 83 30.11 0.0
01 09:15 NW 3 10.00 Fair CLR 77.9 70.9 79% 80 30.11 0.0
01 08:55 NW 3 10.00 Fair CLR 75.4 70.7 85% 75 30.11 0.0
01 08:35 W 3 10.00 Fair CLR 73.9 72.3 95% 30.11 0.0
01 08:15 Calm 10.00 Fair CLR 72.9 71.4 95% 30.1 0.0
01 07:55 Calm 5.00 Fair CLR 71.2 70 72.3 68.4 96% 30.1 0.0
01 07:35 Calm 1.50 Sky Obscured VV007 70 68.5 95% 30.09 0.0
01 07:15 Calm 3.00 Fair CLR 68.7 67.3 95% 30.08 0.0
01 06:55 Calm 0.50 Partly Cloudy SCT002 68.9 67.3 95% 30.08 0.0
01 06:35 Calm 1.50 Partly Cloudy SCT002 68.9 67.5 95% 30.08 0.0
01 06:15 Calm 4.00 Fair CLR 69.3 67.8 95% 30.07 0.0
01 05:55 Calm 1.00 Partly Cloudy SCT003 69.3 67.8 95% 30.08 0.0
01 05:35 Calm 3.00 Fair CLR 69.3 67.8 95% 30.07 0.0
01 05:15 Calm 4.00 Fair CLR 69.8 68.4 95% 30.08 0.0
01 04:55 Calm 2.50 Fair CLR 69.6 68.2 95% 30.08 0.0
01 04:35 Calm 2.00 Fair CLR 70 68.4 95% 30.07 0.0
01 04:15 Calm 7.00 Fair CLR 70.9 69.6 96% 30.07 0.0
01 03:55 Calm 0.50 Sky Obscured VV005 70.5 69.1 95% 30.07 0.0
01 03:35 Calm 2.00 Fair CLR 70.7 69.1 95% 30.07 0.0
01 03:15 Calm 1.50 Sky Obscured VV007 71.4 70 95% 30.08 0.0
01 02:55 Calm 0.75 Sky Obscured VV005 71.6 70 95% 30.08 0.0
01 02:35 Calm 1.75 Partly Cloudy SCT002 71.6 70 95% 30.09 0.0
01 02:15 Calm 1.25 Sky Obscured VV007 72.3 70.9 95% 30.09 0.0
01 01:55 Calm 0.75 Partly Cloudy SCT003 72 70.5 83.3 72 95% 30.1 0.0 0.48
01 01:35 Calm 2.00 Fair CLR 72.1 70.9 96% 30.09 0.0
01 01:15 Calm 3.00 Fair CLR 72.5 70.9 95% 30.09 0.0
01 00:55 Calm 1.25 Sky Obscured VV007 72.5 71.1 95% 30.09 0.0
01 00:35 Calm 1.00 Sky Obscured VV007 72.5 70.9 95% 30.09 0.0
01 00:15 Calm 1.25 Sky Obscured VV007 73 71.6 95% 30.09 0.0
31 23:55 Calm 4.00 Fair CLR 73.4 71.6 94% 30.09 0.0
31 23:35 Calm 10.00 Fair CLR 73.9 72.1 94% 30.1 0.0
31 23:15 Calm 10.00 Fair CLR 74.1 71.8 92% 30.1 0.0
31 22:55 N 5 10.00 Partly Cloudy SCT075 SCT090 74.3 71.8 92% 30.1 0.0 0.48
31 22:35 NE 3 5.00 Overcast SCT075 OVC090 74.3 72.7 95% 30.1 0.0
31 22:15 Calm 7.00 Overcast SCT075 OVC090 74.5 72.7 94% 30.09 0.0
31 21:55 Calm 10.00 Mostly Cloudy BKN090 74.3 72.1 93% 30.09 0.0
31 21:35 Calm 5.00 Partly Cloudy SCT110 74.5 72 92% 30.08 0.0
31 21:15 S 3 10.00 Mostly Cloudy SCT038 SCT050 BKN100 75.9 71.1 85% 76 30.08 0.0
31 20:55 S 8 4.00 Overcast SCT020 BKN050 OVC070 75.4 71.6 88% 75 30.08 0.0 0.48
31 20:35 N 15 G 25 3.00 Overcast SCT024 BKN050 OVC075 77 71.2 82% 78 30.1 0.0 0.14
31 20:15 N 9 10.00 Overcast SCT075 BKN090 OVC120 81.9 70.5 69% 86 30.07 0.0
31 19:55 Calm 10.00 Mostly Cloudy BKN090 83.5 70.3 95.9 83.5 65% 88 30.06 0.0
31 19:35 Calm 10.00 Mostly Cloudy BKN090 BKN110 84.2 70.2 63% 89 30.06 0.0
31 19:15 Calm 10.00 Mostly Cloudy BKN110 85.3 69.4 59% 89 30.06 0.0
31 18:55 Calm 10.00 Partly Cloudy SCT080 SCT100 86.4 68.5 55% 90 30.06 0.0
31 18:35 Calm 10.00 Fair CLR 87.8 67.6 51% 91 30.06 0.0
31 18:15 SE 3 10.00 Partly Cloudy SCT080 SCT110 89.8 66.9 47% 93 30.05 0.0
31 17:55 SE 5 10.00 Mostly Cloudy SCT070 BKN090 BKN110 91.2 65.8 43% 94 30.06 0.0
31 17:35 SE 7 10.00 Mostly Cloudy SCT070 SCT080 BKN110 93.2 65.8 41% 96 30.05 0.0
31 17:15 S 6 10.00 Mostly Cloudy BKN110 93.7 63.3 37% 95 30.06 0.0
31 16:55 S 6 10.00 Mostly Cloudy SCT075 BKN110 93.4 64 38% 95 30.06 0.0
31 16:35 Calm 10.00 Partly Cloudy SCT060 93.4 63.9 38% 95 30.06 0.0
31 16:15 Calm 10.00 Fair CLR 93.6 63.9 37% 95 30.06 0.0
31 15:55 SE 5 10.00 Partly Cloudy SCT080 SCT120 94.1 64 37% 96 30.07 0.0
31 15:35 S 7 10.00 Partly Cloudy SCT065 SCT085 SCT120 95.2 63.7 35% 97 30.07 0.0
31 15:15 SW 7 10.00 Overcast SCT065 SCT075 OVC085 92.8 63.9 38% 94 30.08 0.0
31 14:55 S 8 10.00 Overcast SCT065 OVC085 93.4 64.2 38% 95 30.08 0.0
31 14:35 Calm 10.00 Overcast OVC065 91.4 63.5 40% 93 30.09 0.0
31 14:15 Calm 10.00 Overcast OVC055 91.8 62.1 37% 92 30.09 0.0
31 13:55 SW 6 10.00 Mostly Cloudy BKN055 BKN070 94.3 63 95.2 70.2 35% 96 30.09 0.0
31 13:35 SW 8 10.00 Partly Cloudy SCT055 SCT070 94.1 63.5 36% 96 30.09 0.0
31 13:15 W 3 10.00 Mostly Cloudy BKN055 BKN070 BKN095 91.6 63.9 40% 93 30.1 0.0
31 12:55 N 8 10.00 Mostly Cloudy BKN055 BKN070 94.1 65.5 39% 97 30.11 0.0
31 12:35 Calm 10.00 Fair CLR 91.2 65.3 42% 93 30.11 0.0
31 12:15 SE 6 10.00 Fair CLR 90.7 65.3 43% 93 30.12 0.0
31 11:55 SW 8 10.00 Fair CLR 90.3 65.7 44% 93 30.12 0.0
31 11:35 S 5 10.00 Fair CLR 88.2 66.6 49% 91 30.13 0.0
31 11:15 W 6 10.00 Fair CLR 87.3 67.6 52% 91 30.13 0.0
Date Time (edt) Wind (mph) Vis. (mi.) Weather Sky Cond. Air Dwpt Max. Min. Relative Humidity Wind Chill (°F) Heat Index (°F) altimeter (in) sea level (mb) 1 hr 3 hr 6 hr
6 hour
Temperature (ºF) Pressure Precipitation (in)